sensor_id;sensor_type;location;lat;lon;timestamp;temperature;humidity
77523;SHT31;66637;-29.628;-49.938;2023-02-15T00:02:21;24.63;78.17
77523;SHT31;66637;-29.628;-49.938;2023-02-15T00:04:53;24.59;78.34
77523;SHT31;66637;-29.628;-49.938;2023-02-15T00:07:27;24.57;78.20
77523;SHT31;66637;-29.628;-49.938;2023-02-15T00:09:58;24.57;78.45
77523;SHT31;66637;-29.628;-49.938;2023-02-15T00:12:29;24.59;78.60
77523;SHT31;66637;-29.628;-49.938;2023-02-15T00:15:01;24.56;78.52
77523;SHT31;66637;-29.628;-49.938;2023-02-15T00:17:33;24.53;78.53
77523;SHT31;66637;-29.628;-49.938;2023-02-15T00:20:03;24.47;78.44
77523;SHT31;66637;-29.628;-49.938;2023-02-15T00:22:36;24.43;78.25
77523;SHT31;66637;-29.628;-49.938;2023-02-15T00:25:14;24.37;78.36
77523;SHT31;66637;-29.628;-49.938;2023-02-15T00:27:49;24.35;77.84
77523;SHT31;66637;-29.628;-49.938;2023-02-15T00:30:19;24.36;77.20
77523;SHT31;66637;-29.628;-49.938;2023-02-15T00:32:52;24.28;77.54
77523;SHT31;66637;-29.628;-49.938;2023-02-15T00:35:24;24.20;77.48
77523;SHT31;66637;-29.628;-49.938;2023-02-15T00:38:06;24.22;77.62
77523;SHT31;66637;-29.628;-49.938;2023-02-15T00:40:40;24.20;77.39
77523;SHT31;66637;-29.628;-49.938;2023-02-15T00:43:14;24.15;77.28
77523;SHT31;66637;-29.628;-49.938;2023-02-15T00:45:46;24.09;77.47
77523;SHT31;66637;-29.628;-49.938;2023-02-15T00:48:21;24.05;77.57
77523;SHT31;66637;-29.628;-49.938;2023-02-15T00:50:58;24.01;77.70
77523;SHT31;66637;-29.628;-49.938;2023-02-15T00:53:34;23.98;77.70
77523;SHT31;66637;-29.628;-49.938;2023-02-15T00:56:05;23.96;77.70
77523;SHT31;66637;-29.628;-49.938;2023-02-15T00:58:37;23.96;77.97
77523;SHT31;66637;-29.628;-49.938;2023-02-15T01:01:15;23.94;78.25
77523;SHT31;66637;-29.628;-49.938;2023-02-15T01:03:50;23.88;78.01
77523;SHT31;66637;-29.628;-49.938;2023-02-15T01:06:20;23.82;77.29
77523;SHT31;66637;-29.628;-49.938;2023-02-15T01:08:51;23.74;77.29
77523;SHT31;66637;-29.628;-49.938;2023-02-15T01:11:24;23.64;77.11
77523;SHT31;66637;-29.628;-49.938;2023-02-15T01:13:58;23.55;77.04
77523;SHT31;66637;-29.628;-49.938;2023-02-15T01:16:39;23.55;76.94
77523;SHT31;66637;-29.628;-49.938;2023-02-15T01:19:10;23.54;77.48
77523;SHT31;66637;-29.628;-49.938;2023-02-15T01:21:46;23.47;77.28
77523;SHT31;66637;-29.628;-49.938;2023-02-15T01:24:28;23.47;77.09
77523;SHT31;66637;-29.628;-49.938;2023-02-15T01:27:12;23.38;76.36
77523;SHT31;66637;-29.628;-49.938;2023-02-15T01:29:43;23.38;76.17
77523;SHT31;66637;-29.628;-49.938;2023-02-15T01:32:15;23.40;76.69
77523;SHT31;66637;-29.628;-49.938;2023-02-15T01:34:47;23.41;77.10
77523;SHT31;66637;-29.628;-49.938;2023-02-15T01:37:19;23.38;77.51
77523;SHT31;66637;-29.628;-49.938;2023-02-15T01:39:54;23.35;77.63
77523;SHT31;66637;-29.628;-49.938;2023-02-15T01:42:28;23.28;77.47
77523;SHT31;66637;-29.628;-49.938;2023-02-15T01:45:33;23.30;77.57
77523;SHT31;66637;-29.628;-49.938;2023-02-15T01:48:19;23.30;77.74
77523;SHT31;66637;-29.628;-49.938;2023-02-15T01:51:01;23.28;77.69
77523;SHT31;66637;-29.628;-49.938;2023-02-15T01:53:40;23.30;77.29
77523;SHT31;66637;-29.628;-49.938;2023-02-15T01:56:36;23.30;77.74
77523;SHT31;66637;-29.628;-49.938;2023-02-15T01:59:17;23.23;77.97
77523;SHT31;66637;-29.628;-49.938;2023-02-15T02:01:53;23.23;77.63
77523;SHT31;66637;-29.628;-49.938;2023-02-15T02:05:01;23.31;77.00
77523;SHT31;66637;-29.628;-49.938;2023-02-15T02:07:30;23.18;76.60
77523;SHT31;66637;-29.628;-49.938;2023-02-15T02:10:08;23.15;76.17
77523;SHT31;66637;-29.628;-49.938;2023-02-15T02:12:42;23.15;75.33
77523;SHT31;66637;-29.628;-49.938;2023-02-15T02:15:22;23.11;75.10
77523;SHT31;66637;-29.628;-49.938;2023-02-15T02:18:11;23.08;74.06
77523;SHT31;66637;-29.628;-49.938;2023-02-15T02:24:13;23.04;73.87
77523;SHT31;66637;-29.628;-49.938;2023-02-15T02:27:18;23.08;74.31
77523;SHT31;66637;-29.628;-49.938;2023-02-15T02:42:07;23.03;76.63
77523;SHT31;66637;-29.628;-49.938;2023-02-15T02:44:41;23.02;75.97
77523;SHT31;66637;-29.628;-49.938;2023-02-15T02:47:26;23.03;75.04
77523;SHT31;66637;-29.628;-49.938;2023-02-15T02:50:03;23.00;75.33
77523;SHT31;66637;-29.628;-49.938;2023-02-15T02:52:50;23.00;75.28
77523;SHT31;66637;-29.628;-49.938;2023-02-15T02:58:48;23.07;74.24
77523;SHT31;66637;-29.628;-49.938;2023-02-15T03:01:49;22.97;74.10
77523;SHT31;66637;-29.628;-49.938;2023-02-15T03:04:30;23.03;73.81
77523;SHT31;66637;-29.628;-49.938;2023-02-15T03:07:11;23.06;73.48
77523;SHT31;66637;-29.628;-49.938;2023-02-15T03:09:47;23.02;73.38
77523;SHT31;66637;-29.628;-49.938;2023-02-15T03:12:41;22.99;73.59
77523;SHT31;66637;-29.628;-49.938;2023-02-15T03:15:22;22.94;73.76
77523;SHT31;66637;-29.628;-49.938;2023-02-15T03:17:58;22.94;73.62
77523;SHT31;66637;-29.628;-49.938;2023-02-15T03:20:36;22.96;73.61
77523;SHT31;66637;-29.628;-49.938;2023-02-15T03:23:14;22.94;73.54
77523;SHT31;66637;-29.628;-49.938;2023-02-15T03:25:57;22.90;73.69
77523;SHT31;66637;-29.628;-49.938;2023-02-15T03:28:53;22.97;73.39
77523;SHT31;66637;-29.628;-49.938;2023-02-15T03:31:35;23.00;73.75
77523;SHT31;66637;-29.628;-49.938;2023-02-15T03:34:15;22.97;73.77
77523;SHT31;66637;-29.628;-49.938;2023-02-15T03:42:32;22.99;74.03
77523;SHT31;66637;-29.628;-49.938;2023-02-15T03:45:09;22.92;74.14
77523;SHT31;66637;-29.628;-49.938;2023-02-15T03:47:46;22.94;73.80
77523;SHT31;66637;-29.628;-49.938;2023-02-15T03:50:20;22.93;73.48
77523;SHT31;66637;-29.628;-49.938;2023-02-15T03:53:16;22.93;72.56
77523;SHT31;66637;-29.628;-49.938;2023-02-15T03:55:54;22.94;71.90
77523;SHT31;66637;-29.628;-49.938;2023-02-15T03:58:34;23.00;71.67
77523;SHT31;66637;-29.628;-49.938;2023-02-15T04:01:38;23.03;71.38
77523;SHT31;66637;-29.628;-49.938;2023-02-15T04:04:38;23.04;68.27
77523;SHT31;66637;-29.628;-49.938;2023-02-15T04:07:12;23.15;67.75
77523;SHT31;66637;-29.628;-49.938;2023-02-15T04:09:44;23.10;68.29
77523;SHT31;66637;-29.628;-49.938;2023-02-15T04:12:35;23.08;68.97
77523;SHT31;66637;-29.628;-49.938;2023-02-15T04:15:08;23.08;69.07
77523;SHT31;66637;-29.628;-49.938;2023-02-15T04:17:59;23.04;69.59
77523;SHT31;66637;-29.628;-49.938;2023-02-15T04:20:35;23.04;70.02
77523;SHT31;66637;-29.628;-49.938;2023-02-15T04:23:24;22.97;70.67
77523;SHT31;66637;-29.628;-49.938;2023-02-15T04:26:16;22.96;71.19
77523;SHT31;66637;-29.628;-49.938;2023-02-15T04:28:49;22.94;72.25
77523;SHT31;66637;-29.628;-49.938;2023-02-15T04:31:20;22.94;74.20
77523;SHT31;66637;-29.628;-49.938;2023-02-15T04:33:54;22.92;74.65
77523;SHT31;66637;-29.628;-49.938;2023-02-15T04:36:26;22.90;75.48
77523;SHT31;66637;-29.628;-49.938;2023-02-15T04:38:58;22.90;75.53
77523;SHT31;66637;-29.628;-49.938;2023-02-15T04:41:30;22.87;75.54
77523;SHT31;66637;-29.628;-49.938;2023-02-15T04:44:06;22.82;75.52
77523;SHT31;66637;-29.628;-49.938;2023-02-15T04:46:38;22.83;75.53
77523;SHT31;66637;-29.628;-49.938;2023-02-15T04:49:10;22.77;74.41
77523;SHT31;66637;-29.628;-49.938;2023-02-15T04:51:41;22.80;73.59
77523;SHT31;66637;-29.628;-49.938;2023-02-15T04:54:13;22.79;71.62
77523;SHT31;66637;-29.628;-49.938;2023-02-15T04:56:44;22.76;71.73
77523;SHT31;66637;-29.628;-49.938;2023-02-15T04:59:20;22.67;72.24
77523;SHT31;66637;-29.628;-49.938;2023-02-15T05:01:52;22.69;72.41
77523;SHT31;66637;-29.628;-49.938;2023-02-15T05:04:24;22.63;72.85
77523;SHT31;66637;-29.628;-49.938;2023-02-15T05:06:55;22.62;73.00
77523;SHT31;66637;-29.628;-49.938;2023-02-15T05:09:27;22.64;71.89
77523;SHT31;66637;-29.628;-49.938;2023-02-15T05:12:00;22.70;71.33
77523;SHT31;66637;-29.628;-49.938;2023-02-15T05:14:34;22.76;70.70
77523;SHT31;66637;-29.628;-49.938;2023-02-15T05:17:07;22.83;69.63
77523;SHT31;66637;-29.628;-49.938;2023-02-15T05:19:39;22.90;69.35
77523;SHT31;66637;-29.628;-49.938;2023-02-15T05:22:10;22.94;68.79
77523;SHT31;66637;-29.628;-49.938;2023-02-15T05:24:41;22.96;69.76
77523;SHT31;66637;-29.628;-49.938;2023-02-15T05:27:31;22.89;70.71
77523;SHT31;66637;-29.628;-49.938;2023-02-15T05:30:20;22.83;71.29
77523;SHT31;66637;-29.628;-49.938;2023-02-15T05:33:07;22.84;71.28
77523;SHT31;66637;-29.628;-49.938;2023-02-15T05:35:39;22.74;71.75
77523;SHT31;66637;-29.628;-49.938;2023-02-15T05:38:11;22.72;71.47
77523;SHT31;66637;-29.628;-49.938;2023-02-15T05:40:44;22.70;71.65
77523;SHT31;66637;-29.628;-49.938;2023-02-15T05:43:17;22.70;71.28
77523;SHT31;66637;-29.628;-49.938;2023-02-15T05:45:51;22.69;71.44
77523;SHT31;66637;-29.628;-49.938;2023-02-15T05:48:26;22.69;71.30
77523;SHT31;66637;-29.628;-49.938;2023-02-15T05:51:13;22.73;70.81
77523;SHT31;66637;-29.628;-49.938;2023-02-15T05:53:46;22.77;70.42
77523;SHT31;66637;-29.628;-49.938;2023-02-15T05:56:16;22.82;70.65
77523;SHT31;66637;-29.628;-49.938;2023-02-15T05:58:53;22.82;70.41
77523;SHT31;66637;-29.628;-49.938;2023-02-15T06:01:25;22.83;70.83
77523;SHT31;66637;-29.628;-49.938;2023-02-15T06:03:59;22.84;70.70
77523;SHT31;66637;-29.628;-49.938;2023-02-15T06:06:30;22.90;69.80
77523;SHT31;66637;-29.628;-49.938;2023-02-15T06:09:02;22.77;70.64
77523;SHT31;66637;-29.628;-49.938;2023-02-15T06:11:38;22.76;70.57
77523;SHT31;66637;-29.628;-49.938;2023-02-15T06:14:10;22.70;70.77
77523;SHT31;66637;-29.628;-49.938;2023-02-15T06:16:42;22.64;70.28
77523;SHT31;66637;-29.628;-49.938;2023-02-15T06:19:14;22.70;69.76
77523;SHT31;66637;-29.628;-49.938;2023-02-15T06:21:47;22.73;68.75
77523;SHT31;66637;-29.628;-49.938;2023-02-15T06:24:17;22.79;69.77
77523;SHT31;66637;-29.628;-49.938;2023-02-15T06:26:51;22.72;70.53
77523;SHT31;66637;-29.628;-49.938;2023-02-15T06:29:23;22.62;70.98
77523;SHT31;66637;-29.628;-49.938;2023-02-15T06:32:06;22.64;72.05
77523;SHT31;66637;-29.628;-49.938;2023-02-15T06:34:36;22.64;73.72
77523;SHT31;66637;-29.628;-49.938;2023-02-15T06:37:11;22.66;72.86
77523;SHT31;66637;-29.628;-49.938;2023-02-15T06:39:42;22.77;71.43
77523;SHT31;66637;-29.628;-49.938;2023-02-15T06:42:15;22.83;71.84
77523;SHT31;66637;-29.628;-49.938;2023-02-15T06:44:49;22.96;72.87
77523;SHT31;66637;-29.628;-49.938;2023-02-15T06:47:22;22.97;73.28
77523;SHT31;66637;-29.628;-49.938;2023-02-15T06:49:53;23.04;74.39
77523;SHT31;66637;-29.628;-49.938;2023-02-15T06:52:26;23.07;74.57
77523;SHT31;66637;-29.628;-49.938;2023-02-15T06:54:58;23.13;74.57
77523;SHT31;66637;-29.628;-49.938;2023-02-15T06:57:32;23.15;73.74
77523;SHT31;66637;-29.628;-49.938;2023-02-15T07:00:14;23.28;72.30
77523;SHT31;66637;-29.628;-49.938;2023-02-15T07:05:47;23.31;71.11
77523;SHT31;66637;-29.628;-49.938;2023-02-15T07:08:25;23.34;71.51
77523;SHT31;66637;-29.628;-49.938;2023-02-15T07:11:00;23.30;71.34
77523;SHT31;66637;-29.628;-49.938;2023-02-15T07:13:55;23.30;70.98
77523;SHT31;66637;-29.628;-49.938;2023-02-15T07:16:29;23.25;71.27
77523;SHT31;66637;-29.628;-49.938;2023-02-15T07:19:01;23.30;70.88
77523;SHT31;66637;-29.628;-49.938;2023-02-15T07:21:34;23.30;71.11
77523;SHT31;66637;-29.628;-49.938;2023-02-15T07:24:06;23.31;70.63
77523;SHT31;66637;-29.628;-49.938;2023-02-15T07:26:39;23.37;69.69
77523;SHT31;66637;-29.628;-49.938;2023-02-15T07:29:12;23.44;69.41
77523;SHT31;66637;-29.628;-49.938;2023-02-15T07:31:45;23.43;69.54
77523;SHT31;66637;-29.628;-49.938;2023-02-15T07:34:25;23.45;69.17
77523;SHT31;66637;-29.628;-49.938;2023-02-15T07:37:08;23.44;69.36
77523;SHT31;66637;-29.628;-49.938;2023-02-15T07:39:40;23.41;69.48
77523;SHT31;66637;-29.628;-49.938;2023-02-15T07:42:17;23.38;69.98
77523;SHT31;66637;-29.628;-49.938;2023-02-15T07:44:50;23.35;70.19
77523;SHT31;66637;-29.628;-49.938;2023-02-15T07:47:22;23.31;70.87
77523;SHT31;66637;-29.628;-49.938;2023-02-15T07:49:56;23.25;70.91
77523;SHT31;66637;-29.628;-49.938;2023-02-15T07:52:56;23.25;70.79
77523;SHT31;66637;-29.628;-49.938;2023-02-15T07:55:28;23.24;70.95
77523;SHT31;66637;-29.628;-49.938;2023-02-15T07:58:13;23.27;70.93
77523;SHT31;66637;-29.628;-49.938;2023-02-15T08:00:48;23.27;70.98
77523;SHT31;66637;-29.628;-49.938;2023-02-15T08:03:27;23.31;70.61
77523;SHT31;66637;-29.628;-49.938;2023-02-15T08:06:06;23.35;70.23
77523;SHT31;66637;-29.628;-49.938;2023-02-15T08:08:39;23.37;69.82
77523;SHT31;66637;-29.628;-49.938;2023-02-15T08:11:31;23.38;69.54
77523;SHT31;66637;-29.628;-49.938;2023-02-15T08:14:20;23.40;69.27
77523;SHT31;66637;-29.628;-49.938;2023-02-15T08:16:58;23.40;68.81
77523;SHT31;66637;-29.628;-49.938;2023-02-15T08:19:44;23.35;69.45
77523;SHT31;66637;-29.628;-49.938;2023-02-15T08:22:18;23.35;68.69
77523;SHT31;66637;-29.628;-49.938;2023-02-15T08:24:51;23.37;69.13
77523;SHT31;66637;-29.628;-49.938;2023-02-15T08:27:26;23.33;69.29
77523;SHT31;66637;-29.628;-49.938;2023-02-15T08:30:13;23.28;69.70
77523;SHT31;66637;-29.628;-49.938;2023-02-15T08:32:46;23.28;70.11
77523;SHT31;66637;-29.628;-49.938;2023-02-15T08:35:21;23.28;70.13
77523;SHT31;66637;-29.628;-49.938;2023-02-15T08:37:51;23.35;70.12
77523;SHT31;66637;-29.628;-49.938;2023-02-15T08:40:24;23.41;69.89
77523;SHT31;66637;-29.628;-49.938;2023-02-15T08:42:57;23.44;69.67
77523;SHT31;66637;-29.628;-49.938;2023-02-15T08:45:32;23.43;70.05
77523;SHT31;66637;-29.628;-49.938;2023-02-15T08:48:10;23.50;70.02
77523;SHT31;66637;-29.628;-49.938;2023-02-15T08:50:43;23.54;69.88
77523;SHT31;66637;-29.628;-49.938;2023-02-15T08:53:13;23.53;69.21
77523;SHT31;66637;-29.628;-49.938;2023-02-15T08:55:59;23.54;68.90
77523;SHT31;66637;-29.628;-49.938;2023-02-15T08:58:30;23.54;68.93
77523;SHT31;66637;-29.628;-49.938;2023-02-15T09:01:18;23.55;69.29
77523;SHT31;66637;-29.628;-49.938;2023-02-15T09:04:07;23.53;69.41
77523;SHT31;66637;-29.628;-49.938;2023-02-15T09:06:53;23.53;69.37
77523;SHT31;66637;-29.628;-49.938;2023-02-15T09:09:29;23.51;69.28
77523;SHT31;66637;-29.628;-49.938;2023-02-15T09:12:04;23.48;69.66
77523;SHT31;66637;-29.628;-49.938;2023-02-15T09:14:38;23.47;69.77
77523;SHT31;66637;-29.628;-49.938;2023-02-15T09:17:10;23.55;69.79
77523;SHT31;66637;-29.628;-49.938;2023-02-15T09:19:43;23.47;70.07
77523;SHT31;66637;-29.628;-49.938;2023-02-15T09:22:28;23.48;70.24
77523;SHT31;66637;-29.628;-49.938;2023-02-15T09:25:00;23.48;70.03
77523;SHT31;66637;-29.628;-49.938;2023-02-15T09:27:32;23.45;69.62
77523;SHT31;66637;-29.628;-49.938;2023-02-15T09:30:11;23.43;69.95
77523;SHT31;66637;-29.628;-49.938;2023-02-15T09:32:47;23.40;69.97
77523;SHT31;66637;-29.628;-49.938;2023-02-15T09:35:21;23.34;69.84
77523;SHT31;66637;-29.628;-49.938;2023-02-15T09:37:53;23.34;69.35
77523;SHT31;66637;-29.628;-49.938;2023-02-15T09:40:38;23.28;68.89
77523;SHT31;66637;-29.628;-49.938;2023-02-15T09:43:42;23.30;68.89
77523;SHT31;66637;-29.628;-49.938;2023-02-15T09:49:10;23.23;69.97
77523;SHT31;66637;-29.628;-49.938;2023-02-15T09:58:45;23.43;70.78
77523;SHT31;66637;-29.628;-49.938;2023-02-15T10:13:39;23.58;70.31
77523;SHT31;66637;-29.628;-49.938;2023-02-15T10:16:34;23.54;70.96
77523;SHT31;66637;-29.628;-49.938;2023-02-15T10:19:34;23.57;70.66
77523;SHT31;66637;-29.628;-49.938;2023-02-15T10:28:19;23.96;72.17
77523;SHT31;66637;-29.628;-49.938;2023-02-15T10:31:24;24.08;73.66
77523;SHT31;66637;-29.628;-49.938;2023-02-15T10:34:19;24.13;73.97
77523;SHT31;66637;-29.628;-49.938;2023-02-15T10:42:57;24.55;72.95
77523;SHT31;66637;-29.628;-49.938;2023-02-15T10:51:05;24.77;72.51
77523;SHT31;66637;-29.628;-49.938;2023-02-15T10:54:02;24.88;72.10
77523;SHT31;66637;-29.628;-49.938;2023-02-15T11:00:27;25.27;71.14
77523;SHT31;66637;-29.628;-49.938;2023-02-15T11:06:13;25.72;70.58
77523;SHT31;66637;-29.628;-49.938;2023-02-15T11:09:02;26.06;69.27
77523;SHT31;66637;-29.628;-49.938;2023-02-15T11:12:00;26.50;66.79
77523;SHT31;66637;-29.628;-49.938;2023-02-15T11:14:40;26.70;67.14
77523;SHT31;66637;-29.628;-49.938;2023-02-15T11:17:19;26.65;67.65
77523;SHT31;66637;-29.628;-49.938;2023-02-15T11:20:45;26.77;66.77
77523;SHT31;66637;-29.628;-49.938;2023-02-15T11:23:46;26.76;66.56
77523;SHT31;66637;-29.628;-49.938;2023-02-15T11:26:51;26.71;67.46
77523;SHT31;66637;-29.628;-49.938;2023-02-15T11:30:09;26.53;67.63
77523;SHT31;66637;-29.628;-49.938;2023-02-15T11:33:05;26.47;67.91
77523;SHT31;66637;-29.628;-49.938;2023-02-15T11:35:52;26.61;66.61
77523;SHT31;66637;-29.628;-49.938;2023-02-15T11:38:34;26.74;65.36
77523;SHT31;66637;-29.628;-49.938;2023-02-15T11:41:31;26.97;64.45
77523;SHT31;66637;-29.628;-49.938;2023-02-15T11:47:24;27.11;63.49
77523;SHT31;66637;-29.628;-49.938;2023-02-15T11:50:10;27.45;63.02
77523;SHT31;66637;-29.628;-49.938;2023-02-15T11:53:11;27.63;62.79
77523;SHT31;66637;-29.628;-49.938;2023-02-15T11:56:30;27.89;62.28
77523;SHT31;66637;-29.628;-49.938;2023-02-15T12:02:36;27.92;63.27
77523;SHT31;66637;-29.628;-49.938;2023-02-15T12:05:13;28.04;62.31
77523;SHT31;66637;-29.628;-49.938;2023-02-15T12:08:40;27.93;62.90
77523;SHT31;66637;-29.628;-49.938;2023-02-15T12:11:37;27.93;60.34
77523;SHT31;66637;-29.628;-49.938;2023-02-15T12:14:20;28.10;61.86
77523;SHT31;66637;-29.628;-49.938;2023-02-15T12:16:57;28.20;59.04
77523;SHT31;66637;-29.628;-49.938;2023-02-15T12:19:49;28.45;57.67
77523;SHT31;66637;-29.628;-49.938;2023-02-15T12:22:28;28.72;53.98
77523;SHT31;66637;-29.628;-49.938;2023-02-15T12:25:30;28.88;56.11
77523;SHT31;66637;-29.628;-49.938;2023-02-15T12:31:48;29.06;54.74
77523;SHT31;66637;-29.628;-49.938;2023-02-15T12:34:39;28.76;53.93
77523;SHT31;66637;-29.628;-49.938;2023-02-15T12:37:30;28.60;54.11
77523;SHT31;66637;-29.628;-49.938;2023-02-15T12:40:58;28.65;55.13
77523;SHT31;66637;-29.628;-49.938;2023-02-15T12:43:40;28.47;54.44
77523;SHT31;66637;-29.628;-49.938;2023-02-15T12:46:19;29.02;56.05
77523;SHT31;66637;-29.628;-49.938;2023-02-15T12:49:17;29.15;55.11
77523;SHT31;66637;-29.628;-49.938;2023-02-15T12:55:25;29.55;53.04
77523;SHT31;66637;-29.628;-49.938;2023-02-15T12:58:44;29.65;53.49
77523;SHT31;66637;-29.628;-49.938;2023-02-15T13:01:41;29.50;51.99
77523;SHT31;66637;-29.628;-49.938;2023-02-15T13:04:27;29.66;52.61
77523;SHT31;66637;-29.628;-49.938;2023-02-15T13:07:19;30.13;53.04
77523;SHT31;66637;-29.628;-49.938;2023-02-15T13:10:26;30.13;52.66
77523;SHT31;66637;-29.628;-49.938;2023-02-15T13:13:31;29.91;54.03
77523;SHT31;66637;-29.628;-49.938;2023-02-15T13:16:34;29.73;54.77
77523;SHT31;66637;-29.628;-49.938;2023-02-15T13:23:06;29.62;55.41
77523;SHT31;66637;-29.628;-49.938;2023-02-15T13:25:54;29.55;56.58
77523;SHT31;66637;-29.628;-49.938;2023-02-15T13:28:39;29.45;56.60
77523;SHT31;66637;-29.628;-49.938;2023-02-15T13:31:30;29.55;56.34
77523;SHT31;66637;-29.628;-49.938;2023-02-15T13:34:28;29.76;56.05
77523;SHT31;66637;-29.628;-49.938;2023-02-15T13:48:41;30.49;55.18
77523;SHT31;66637;-29.628;-49.938;2023-02-15T13:52:08;30.79;55.07
77523;SHT31;66637;-29.628;-49.938;2023-02-15T14:01:15;31.13;55.57
77523;SHT31;66637;-29.628;-49.938;2023-02-15T14:20:39;30.99;54.51
77523;SHT31;66637;-29.628;-49.938;2023-02-15T14:30:15;31.34;55.27
77523;SHT31;66637;-29.628;-49.938;2023-02-15T14:36:09;31.47;54.11
77523;SHT31;66637;-29.628;-49.938;2023-02-15T14:45:29;31.78;54.04
77523;SHT31;66637;-29.628;-49.938;2023-02-15T14:48:20;31.73;53.22
77523;SHT31;66637;-29.628;-49.938;2023-02-15T14:50:57;31.54;53.14
77523;SHT31;66637;-29.628;-49.938;2023-02-15T14:53:36;31.26;53.76
77523;SHT31;66637;-29.628;-49.938;2023-02-15T14:56:17;31.67;53.97
77523;SHT31;66637;-29.628;-49.938;2023-02-15T14:59:21;32.46;53.30
77523;SHT31;66637;-29.628;-49.938;2023-02-15T15:02:15;32.29;52.80
77523;SHT31;66637;-29.628;-49.938;2023-02-15T15:05:18;32.41;52.92
77523;SHT31;66637;-29.628;-49.938;2023-02-15T15:07:56;32.35;52.91
77523;SHT31;66637;-29.628;-49.938;2023-02-15T15:10:43;32.59;51.60
77523;SHT31;66637;-29.628;-49.938;2023-02-15T15:22:42;32.96;51.05
77523;SHT31;66637;-29.628;-49.938;2023-02-15T15:25:53;33.10;51.34
77523;SHT31;66637;-29.628;-49.938;2023-02-15T15:28:54;32.94;51.42
77523;SHT31;66637;-29.628;-49.938;2023-02-15T15:32:26;32.69;52.10
77523;SHT31;66637;-29.628;-49.938;2023-02-15T15:51:45;32.85;51.91
77523;SHT31;66637;-29.628;-49.938;2023-02-15T15:54:21;32.68;51.82
77523;SHT31;66637;-29.628;-49.938;2023-02-15T15:57:38;32.52;52.40
77523;SHT31;66637;-29.628;-49.938;2023-02-15T16:03:28;32.41;52.65
77523;SHT31;66637;-29.628;-49.938;2023-02-15T16:06:27;32.24;53.66
77523;SHT31;66637;-29.628;-49.938;2023-02-15T16:09:24;32.04;52.83
77523;SHT31;66637;-29.628;-49.938;2023-02-15T16:12:21;32.24;53.61
77523;SHT31;66637;-29.628;-49.938;2023-02-15T16:15:04;32.04;53.14
77523;SHT31;66637;-29.628;-49.938;2023-02-15T16:17:59;32.18;53.29
77523;SHT31;66637;-29.628;-49.938;2023-02-15T16:20:59;32.11;52.09
77523;SHT31;66637;-29.628;-49.938;2023-02-15T16:27:35;32.13;53.56
77523;SHT31;66637;-29.628;-49.938;2023-02-15T16:30:26;32.07;54.23
77523;SHT31;66637;-29.628;-49.938;2023-02-15T16:33:17;32.56;52.43
77523;SHT31;66637;-29.628;-49.938;2023-02-15T16:35:59;32.71;52.54
77523;SHT31;66637;-29.628;-49.938;2023-02-15T16:41:30;32.54;53.23
77523;SHT31;66637;-29.628;-49.938;2023-02-15T16:45:06;32.69;53.77
77523;SHT31;66637;-29.628;-49.938;2023-02-15T16:48:20;32.78;53.21
77523;SHT31;66637;-29.628;-49.938;2023-02-15T16:51:26;32.32;53.39
77523;SHT31;66637;-29.628;-49.938;2023-02-15T16:54:19;32.18;52.98
77523;SHT31;66637;-29.628;-49.938;2023-02-15T16:57:43;32.00;53.01
77523;SHT31;66637;-29.628;-49.938;2023-02-15T17:00:56;32.24;52.74
77523;SHT31;66637;-29.628;-49.938;2023-02-15T17:03:38;32.29;53.99
77523;SHT31;66637;-29.628;-49.938;2023-02-15T17:06:29;32.31;54.01
77523;SHT31;66637;-29.628;-49.938;2023-02-15T17:09:29;32.27;53.54
77523;SHT31;66637;-29.628;-49.938;2023-02-15T17:15:43;31.74;55.23
77523;SHT31;66637;-29.628;-49.938;2023-02-15T17:18:32;32.03;55.91
77523;SHT31;66637;-29.628;-49.938;2023-02-15T17:21:26;32.21;51.43
77523;SHT31;66637;-29.628;-49.938;2023-02-15T17:24:44;32.27;53.32
77523;SHT31;66637;-29.628;-49.938;2023-02-15T17:27:35;32.08;51.87
77523;SHT31;66637;-29.628;-49.938;2023-02-15T17:30:32;31.73;53.19
77523;SHT31;66637;-29.628;-49.938;2023-02-15T17:33:23;31.91;54.31
77523;SHT31;66637;-29.628;-49.938;2023-02-15T17:36:28;31.84;52.68
77523;SHT31;66637;-29.628;-49.938;2023-02-15T17:39:21;31.54;52.74
77523;SHT31;66637;-29.628;-49.938;2023-02-15T17:42:03;31.53;54.39
77523;SHT31;66637;-29.628;-49.938;2023-02-15T17:44:48;31.29;53.01
77523;SHT31;66637;-29.628;-49.938;2023-02-15T17:47:30;31.22;52.95
77523;SHT31;66637;-29.628;-49.938;2023-02-15T17:50:22;31.19;53.35
77523;SHT31;66637;-29.628;-49.938;2023-02-15T17:53:00;31.33;53.42
77523;SHT31;66637;-29.628;-49.938;2023-02-15T17:55:49;31.36;54.19
77523;SHT31;66637;-29.628;-49.938;2023-02-15T17:58:27;31.33;53.64
77523;SHT31;66637;-29.628;-49.938;2023-02-15T18:01:23;30.61;57.98
77523;SHT31;66637;-29.628;-49.938;2023-02-15T18:04:25;30.11;59.45
77523;SHT31;66637;-29.628;-49.938;2023-02-15T18:07:38;29.88;59.78
77523;SHT31;66637;-29.628;-49.938;2023-02-15T18:10:29;29.53;60.62
77523;SHT31;66637;-29.628;-49.938;2023-02-15T18:13:34;29.19;61.04
77523;SHT31;66637;-29.628;-49.938;2023-02-15T18:16:24;28.94;60.38
77523;SHT31;66637;-29.628;-49.938;2023-02-15T18:19:25;28.71;60.78
77523;SHT31;66637;-29.628;-49.938;2023-02-15T18:22:17;28.48;61.26
77523;SHT31;66637;-29.628;-49.938;2023-02-15T18:24:53;28.36;61.68
77523;SHT31;66637;-29.628;-49.938;2023-02-15T18:27:29;28.27;63.80
77523;SHT31;66637;-29.628;-49.938;2023-02-15T18:30:17;28.25;63.51
77523;SHT31;66637;-29.628;-49.938;2023-02-15T18:36:44;28.47;63.98
77523;SHT31;66637;-29.628;-49.938;2023-02-15T18:39:42;28.52;62.03
77523;SHT31;66637;-29.628;-49.938;2023-02-15T18:42:25;28.51;62.47
77523;SHT31;66637;-29.628;-49.938;2023-02-15T18:45:24;28.51;61.92
77523;SHT31;66637;-29.628;-49.938;2023-02-15T18:48:39;28.43;63.61
77523;SHT31;66637;-29.628;-49.938;2023-02-15T18:51:45;28.25;62.72
77523;SHT31;66637;-29.628;-49.938;2023-02-15T18:54:58;28.18;63.37
77523;SHT31;66637;-29.628;-49.938;2023-02-15T18:57:32;28.10;62.64
77523;SHT31;66637;-29.628;-49.938;2023-02-15T19:00:21;28.34;62.62
77523;SHT31;66637;-29.628;-49.938;2023-02-15T19:03:29;28.47;61.75
77523;SHT31;66637;-29.628;-49.938;2023-02-15T19:06:35;28.45;62.71
77523;SHT31;66637;-29.628;-49.938;2023-02-15T19:09:32;28.43;63.00
77523;SHT31;66637;-29.628;-49.938;2023-02-15T19:12:29;28.41;63.53
77523;SHT31;66637;-29.628;-49.938;2023-02-15T19:15:01;28.40;63.31
77523;SHT31;66637;-29.628;-49.938;2023-02-15T19:18:01;28.44;63.30
77523;SHT31;66637;-29.628;-49.938;2023-02-15T19:20:40;28.37;64.46
77523;SHT31;66637;-29.628;-49.938;2023-02-15T19:23:22;28.36;63.76
77523;SHT31;66637;-29.628;-49.938;2023-02-15T19:26:19;28.31;63.96
77523;SHT31;66637;-29.628;-49.938;2023-02-15T19:29:27;28.07;63.84
77523;SHT31;66637;-29.628;-49.938;2023-02-15T19:32:04;27.92;65.02
77523;SHT31;66637;-29.628;-49.938;2023-02-15T19:35:04;27.94;66.12